sensor_id;sensor_type;location;lat;lon;timestamp;temperature;humidity
51661;DHT22;37741;49.748;8.490;2023-06-10T00:01:42;27.10;45.10
51661;DHT22;37741;49.748;8.490;2023-06-10T00:04:08;27.00;45.10
51661;DHT22;37741;49.748;8.490;2023-06-10T00:06:34;27.00;45.10
51661;DHT22;37741;49.748;8.490;2023-06-10T00:09:06;26.90;45.10
51661;DHT22;37741;49.748;8.490;2023-06-10T00:11:36;26.90;45.20
51661;DHT22;37741;49.748;8.490;2023-06-10T00:14:02;26.90;45.20
51661;DHT22;37741;49.748;8.490;2023-06-10T00:16:28;26.80;45.20
51661;DHT22;37741;49.748;8.490;2023-06-10T00:18:54;26.80;45.30
51661;DHT22;37741;49.748;8.490;2023-06-10T00:21:33;26.80;45.40
51661;DHT22;37741;49.748;8.490;2023-06-10T00:24:06;26.70;45.30
51661;DHT22;37741;49.748;8.490;2023-06-10T00:26:32;26.70;45.40
51661;DHT22;37741;49.748;8.490;2023-06-10T00:28:58;26.60;45.20
51661;DHT22;37741;49.748;8.490;2023-06-10T00:31:24;26.60;45.30
51661;DHT22;37741;49.748;8.490;2023-06-10T00:33:51;26.60;45.40
51661;DHT22;37741;49.748;8.490;2023-06-10T00:36:17;26.50;45.40
51661;DHT22;37741;49.748;8.490;2023-06-10T00:38:43;26.50;45.30
51661;DHT22;37741;49.748;8.490;2023-06-10T00:41:08;26.50;45.40
51661;DHT22;37741;49.748;8.490;2023-06-10T00:43:34;26.40;45.40
51661;DHT22;37741;49.748;8.490;2023-06-10T00:46:00;26.40;45.40
51661;DHT22;37741;49.748;8.490;2023-06-10T00:48:26;26.30;45.40
51661;DHT22;37741;49.748;8.490;2023-06-10T00:50:52;26.30;45.60
51661;DHT22;37741;49.748;8.490;2023-06-10T00:53:18;26.20;46.10
51661;DHT22;37741;49.748;8.490;2023-06-10T00:55:44;26.20;45.60
51661;DHT22;37741;49.748;8.490;2023-06-10T00:58:10;26.10;45.70
51661;DHT22;37741;49.748;8.490;2023-06-10T01:00:36;26.10;46.40
51661;DHT22;37741;49.748;8.490;2023-06-10T01:03:02;26.00;45.80
51661;DHT22;37741;49.748;8.490;2023-06-10T01:05:33;26.00;45.80
51661;DHT22;37741;49.748;8.490;2023-06-10T01:08:32;26.00;45.90
51661;DHT22;37741;49.748;8.490;2023-06-10T01:11:00;25.90;46.00
51661;DHT22;37741;49.748;8.490;2023-06-10T01:13:28;25.90;46.10
51661;DHT22;37741;49.748;8.490;2023-06-10T01:15:57;25.80;46.10
51661;DHT22;37741;49.748;8.490;2023-06-10T01:18:30;25.80;46.10
51661;DHT22;37741;49.748;8.490;2023-06-10T01:20:56;25.70;46.20
51661;DHT22;37741;49.748;8.490;2023-06-10T01:23:22;25.70;46.20
51661;DHT22;37741;49.748;8.490;2023-06-10T01:25:52;25.60;46.30
51661;DHT22;37741;49.748;8.490;2023-06-10T01:28:36;25.60;46.40
51661;DHT22;37741;49.748;8.490;2023-06-10T01:31:16;25.60;46.50
51661;DHT22;37741;49.748;8.490;2023-06-10T01:33:46;25.50;46.50
51661;DHT22;37741;49.748;8.490;2023-06-10T01:36:15;25.50;46.70
51661;DHT22;37741;49.748;8.490;2023-06-10T01:38:46;25.40;46.60
51661;DHT22;37741;49.748;8.490;2023-06-10T01:41:13;25.40;46.60
51661;DHT22;37741;49.748;8.490;2023-06-10T01:43:43;25.40;47.30
51661;DHT22;37741;49.748;8.490;2023-06-10T01:46:09;25.30;46.80
51661;DHT22;37741;49.748;8.490;2023-06-10T01:48:35;25.30;46.80
51661;DHT22;37741;49.748;8.490;2023-06-10T01:51:00;25.30;47.50
51661;DHT22;37741;49.748;8.490;2023-06-10T01:53:26;25.20;46.90
51661;DHT22;37741;49.748;8.490;2023-06-10T01:55:51;25.20;46.90
51661;DHT22;37741;49.748;8.490;2023-06-10T01:58:17;25.20;47.10
51661;DHT22;37741;49.748;8.490;2023-06-10T02:00:42;25.10;47.10
51661;DHT22;37741;49.748;8.490;2023-06-10T02:03:08;25.10;47.20
51661;DHT22;37741;49.748;8.490;2023-06-10T02:05:34;25.00;47.30
51661;DHT22;37741;49.748;8.490;2023-06-10T02:07:59;25.00;47.30
51661;DHT22;37741;49.748;8.490;2023-06-10T02:10:26;25.00;47.40
51661;DHT22;37741;49.748;8.490;2023-06-10T02:12:51;25.00;47.50
51661;DHT22;37741;49.748;8.490;2023-06-10T02:15:17;24.90;47.50
51661;DHT22;37741;49.748;8.490;2023-06-10T02:17:43;24.90;47.60
51661;DHT22;37741;49.748;8.490;2023-06-10T02:20:10;24.90;47.70
51661;DHT22;37741;49.748;8.490;2023-06-10T02:22:36;24.80;47.60
51661;DHT22;37741;49.748;8.490;2023-06-10T02:25:02;24.80;47.70
51661;DHT22;37741;49.748;8.490;2023-06-10T02:27:29;24.80;47.70
51661;DHT22;37741;49.748;8.490;2023-06-10T02:29:56;24.80;47.80
51661;DHT22;37741;49.748;8.490;2023-06-10T02:32:21;24.70;47.80
51661;DHT22;37741;49.748;8.490;2023-06-10T02:34:47;24.70;47.90
51661;DHT22;37741;49.748;8.490;2023-06-10T02:37:14;24.70;48.00
51661;DHT22;37741;49.748;8.490;2023-06-10T02:39:40;24.70;48.00
51661;DHT22;37741;49.748;8.490;2023-06-10T02:42:06;24.60;48.10
51661;DHT22;37741;49.748;8.490;2023-06-10T02:44:32;24.60;48.00
51661;DHT22;37741;49.748;8.490;2023-06-10T02:46:57;24.60;48.10
51661;DHT22;37741;49.748;8.490;2023-06-10T02:49:23;24.60;48.30
51661;DHT22;37741;49.748;8.490;2023-06-10T02:51:50;24.50;48.30
51661;DHT22;37741;49.748;8.490;2023-06-10T02:54:19;24.50;48.30
51661;DHT22;37741;49.748;8.490;2023-06-10T02:56:45;24.40;48.30
51661;DHT22;37741;49.748;8.490;2023-06-10T02:59:11;24.40;48.40
51661;DHT22;37741;49.748;8.490;2023-06-10T03:01:37;24.40;48.60
51661;DHT22;37741;49.748;8.490;2023-06-10T03:04:06;24.40;48.60
51661;DHT22;37741;49.748;8.490;2023-06-10T03:06:31;24.30;48.70
51661;DHT22;37741;49.748;8.490;2023-06-10T03:08:59;24.30;48.70
51661;DHT22;37741;49.748;8.490;2023-06-10T03:11:25;24.20;48.80
51661;DHT22;37741;49.748;8.490;2023-06-10T03:13:51;24.20;48.80
51661;DHT22;37741;49.748;8.490;2023-06-10T03:16:19;24.20;48.90
51661;DHT22;37741;49.748;8.490;2023-06-10T03:18:45;24.20;48.90
51661;DHT22;37741;49.748;8.490;2023-06-10T03:21:10;24.10;49.00
51661;DHT22;37741;49.748;8.490;2023-06-10T03:23:36;24.00;49.10
51661;DHT22;37741;49.748;8.490;2023-06-10T03:26:03;24.00;49.20
51661;DHT22;37741;49.748;8.490;2023-06-10T03:28:30;23.90;49.10
51661;DHT22;37741;49.748;8.490;2023-06-10T03:30:56;23.90;49.40
51661;DHT22;37741;49.748;8.490;2023-06-10T03:33:22;23.80;49.50
51661;DHT22;37741;49.748;8.490;2023-06-10T03:35:47;23.80;49.70
51661;DHT22;37741;49.748;8.490;2023-06-10T03:38:13;23.70;49.80
51661;DHT22;37741;49.748;8.490;2023-06-10T03:40:39;23.70;49.90
51661;DHT22;37741;49.748;8.490;2023-06-10T03:43:04;23.60;49.90
51661;DHT22;37741;49.748;8.490;2023-06-10T03:45:30;23.60;50.10
51661;DHT22;37741;49.748;8.490;2023-06-10T03:47:57;23.50;50.30
51661;DHT22;37741;49.748;8.490;2023-06-10T03:50:23;23.50;50.40
51661;DHT22;37741;49.748;8.490;2023-06-10T03:52:50;23.40;50.30
51661;DHT22;37741;49.748;8.490;2023-06-10T03:55:16;23.40;50.50
51661;DHT22;37741;49.748;8.490;2023-06-10T03:57:43;23.30;50.50
51661;DHT22;37741;49.748;8.490;2023-06-10T04:00:09;23.30;50.60
51661;DHT22;37741;49.748;8.490;2023-06-10T04:02:38;23.30;50.70
51661;DHT22;37741;49.748;8.490;2023-06-10T04:05:12;23.20;50.80
51661;DHT22;37741;49.748;8.490;2023-06-10T04:07:37;23.20;51.00
51661;DHT22;37741;49.748;8.490;2023-06-10T04:10:08;23.20;51.00
51661;DHT22;37741;49.748;8.490;2023-06-10T04:12:34;23.10;51.30
51661;DHT22;37741;49.748;8.490;2023-06-10T04:15:06;23.00;51.40
51661;DHT22;37741;49.748;8.490;2023-06-10T04:17:32;23.00;51.50
51661;DHT22;37741;49.748;8.490;2023-06-10T04:19:58;23.00;51.50
51661;DHT22;37741;49.748;8.490;2023-06-10T04:22:24;22.90;51.50
51661;DHT22;37741;49.748;8.490;2023-06-10T04:24:50;22.90;51.80
51661;DHT22;37741;49.748;8.490;2023-06-10T04:27:15;22.90;51.90
51661;DHT22;37741;49.748;8.490;2023-06-10T04:29:41;22.80;51.80
51661;DHT22;37741;49.748;8.490;2023-06-10T04:32:07;22.80;52.00
51661;DHT22;37741;49.748;8.490;2023-06-10T04:34:33;22.80;52.20
51661;DHT22;37741;49.748;8.490;2023-06-10T04:36:59;22.80;52.20
51661;DHT22;37741;49.748;8.490;2023-06-10T04:39:25;22.70;52.90
51661;DHT22;37741;49.748;8.490;2023-06-10T04:41:51;22.70;52.30
51661;DHT22;37741;49.748;8.490;2023-06-10T04:44:17;22.70;52.50
51661;DHT22;37741;49.748;8.490;2023-06-10T04:46:44;22.70;52.50
51661;DHT22;37741;49.748;8.490;2023-06-10T04:49:09;22.60;52.50
51661;DHT22;37741;49.748;8.490;2023-06-10T04:51:41;22.60;52.60
51661;DHT22;37741;49.748;8.490;2023-06-10T04:54:17;22.60;52.70
51661;DHT22;37741;49.748;8.490;2023-06-10T04:56:43;22.70;53.40
51661;DHT22;37741;49.748;8.490;2023-06-10T04:59:08;22.60;52.70
51661;DHT22;37741;49.748;8.490;2023-06-10T05:01:34;22.60;52.80
51661;DHT22;37741;49.748;8.490;2023-06-10T05:04:00;22.60;52.90
51661;DHT22;37741;49.748;8.490;2023-06-10T05:06:25;22.70;52.90
51661;DHT22;37741;49.748;8.490;2023-06-10T05:08:51;22.70;53.00
51661;DHT22;37741;49.748;8.490;2023-06-10T05:11:16;22.70;53.00
51661;DHT22;37741;49.748;8.490;2023-06-10T05:13:42;22.70;53.00
51661;DHT22;37741;49.748;8.490;2023-06-10T05:16:09;22.70;53.10
51661;DHT22;37741;49.748;8.490;2023-06-10T05:18:35;22.70;53.10
51661;DHT22;37741;49.748;8.490;2023-06-10T05:21:01;22.70;53.10
51661;DHT22;37741;49.748;8.490;2023-06-10T05:23:29;22.70;53.00
51661;DHT22;37741;49.748;8.490;2023-06-10T05:25:54;22.70;53.00
51661;DHT22;37741;49.748;8.490;2023-06-10T05:28:20;22.70;53.20
51661;DHT22;37741;49.748;8.490;2023-06-10T05:30:46;22.70;53.40
51661;DHT22;37741;49.748;8.490;2023-06-10T05:33:11;22.60;53.30
51661;DHT22;37741;49.748;8.490;2023-06-10T05:35:37;22.70;53.30
51661;DHT22;37741;49.748;8.490;2023-06-10T05:38:02;22.70;53.30
51661;DHT22;37741;49.748;8.490;2023-06-10T05:40:28;22.70;53.30
51661;DHT22;37741;49.748;8.490;2023-06-10T05:42:54;22.70;54.00
51661;DHT22;37741;49.748;8.490;2023-06-10T05:45:19;22.70;53.40
51661;DHT22;37741;49.748;8.490;2023-06-10T05:47:45;22.80;53.60
51661;DHT22;37741;49.748;8.490;2023-06-10T05:50:10;22.80;53.50
51661;DHT22;37741;49.748;8.490;2023-06-10T05:52:36;22.90;53.60
51661;DHT22;37741;49.748;8.490;2023-06-10T05:55:03;22.90;53.50
51661;DHT22;37741;49.748;8.490;2023-06-10T05:57:28;23.00;53.50
51661;DHT22;37741;49.748;8.490;2023-06-10T05:59:54;23.00;53.40
51661;DHT22;37741;49.748;8.490;2023-06-10T06:02:20;23.10;53.30
51661;DHT22;37741;49.748;8.490;2023-06-10T06:04:46;23.10;53.30
51661;DHT22;37741;49.748;8.490;2023-06-10T06:07:11;23.20;53.20
51661;DHT22;37741;49.748;8.490;2023-06-10T06:09:37;23.30;53.10
51661;DHT22;37741;49.748;8.490;2023-06-10T06:12:03;23.30;53.50
51661;DHT22;37741;49.748;8.490;2023-06-10T06:14:31;23.40;53.00
51661;DHT22;37741;49.748;8.490;2023-06-10T06:16:57;23.30;52.90
51661;DHT22;37741;49.748;8.490;2023-06-10T06:19:22;23.40;53.00
51661;DHT22;37741;49.748;8.490;2023-06-10T06:21:48;23.40;53.00
51661;DHT22;37741;49.748;8.490;2023-06-10T06:24:15;23.40;52.90
51661;DHT22;37741;49.748;8.490;2023-06-10T06:26:41;23.40;53.00
51661;DHT22;37741;49.748;8.490;2023-06-10T06:29:06;23.40;53.00
51661;DHT22;37741;49.748;8.490;2023-06-10T06:31:32;23.40;53.10
51661;DHT22;37741;49.748;8.490;2023-06-10T06:33:57;23.40;53.10
51661;DHT22;37741;49.748;8.490;2023-06-10T06:36:23;23.40;53.10
51661;DHT22;37741;49.748;8.490;2023-06-10T06:38:49;23.40;53.10
51661;DHT22;37741;49.748;8.490;2023-06-10T06:41:14;23.40;53.10
51661;DHT22;37741;49.748;8.490;2023-06-10T06:43:40;23.50;53.10
51661;DHT22;37741;49.748;8.490;2023-06-10T06:46:05;23.40;53.00
51661;DHT22;37741;49.748;8.490;2023-06-10T06:48:31;23.50;53.20
51661;DHT22;37741;49.748;8.490;2023-06-10T06:50:57;23.50;53.20
51661;DHT22;37741;49.748;8.490;2023-06-10T06:53:23;23.50;53.20
51661;DHT22;37741;49.748;8.490;2023-06-10T06:55:49;23.50;53.10
51661;DHT22;37741;49.748;8.490;2023-06-10T06:58:14;23.50;53.20
51661;DHT22;37741;49.748;8.490;2023-06-10T07:00:40;23.50;53.20
51661;DHT22;37741;49.748;8.490;2023-06-10T07:03:06;23.50;53.20
51661;DHT22;37741;49.748;8.490;2023-06-10T07:05:31;23.50;53.20
51661;DHT22;37741;49.748;8.490;2023-06-10T07:07:57;23.50;53.20
51661;DHT22;37741;49.748;8.490;2023-06-10T07:10:26;23.50;53.10
51661;DHT22;37741;49.748;8.490;2023-06-10T07:12:52;23.50;53.20
51661;DHT22;37741;49.748;8.490;2023-06-10T07:15:17;23.50;53.20
51661;DHT22;37741;49.748;8.490;2023-06-10T07:17:43;23.60;53.30
51661;DHT22;37741;49.748;8.490;2023-06-10T07:20:09;23.50;53.20
51661;DHT22;37741;49.748;8.490;2023-06-10T07:22:35;23.50;53.20
51661;DHT22;37741;49.748;8.490;2023-06-10T07:25:01;23.50;53.20
51661;DHT22;37741;49.748;8.490;2023-06-10T07:27:26;23.50;53.20
51661;DHT22;37741;49.748;8.490;2023-06-10T07:29:52;23.50;53.40
51661;DHT22;37741;49.748;8.490;2023-06-10T07:32:18;23.50;53.30
51661;DHT22;37741;49.748;8.490;2023-06-10T07:34:46;23.50;53.30
51661;DHT22;37741;49.748;8.490;2023-06-10T07:37:11;23.50;53.20
51661;DHT22;37741;49.748;8.490;2023-06-10T07:39:37;23.60;53.30
51661;DHT22;37741;49.748;8.490;2023-06-10T07:42:02;23.60;53.30
51661;DHT22;37741;49.748;8.490;2023-06-10T07:44:28;23.60;53.20
51661;DHT22;37741;49.748;8.490;2023-06-10T07:46:54;23.60;53.10
51661;DHT22;37741;49.748;8.490;2023-06-10T07:49:19;23.70;53.10
51661;DHT22;37741;49.748;8.490;2023-06-10T07:51:45;23.70;53.00
51661;DHT22;37741;49.748;8.490;2023-06-10T07:54:10;23.70;52.90
51661;DHT22;37741;49.748;8.490;2023-06-10T07:56:37;23.80;52.90
51661;DHT22;37741;49.748;8.490;2023-06-10T07:59:03;23.70;52.80
51661;DHT22;37741;49.748;8.490;2023-06-10T08:01:29;23.80;52.80
51661;DHT22;37741;49.748;8.490;2023-06-10T08:03:55;23.80;52.80
51661;DHT22;37741;49.748;8.490;2023-06-10T08:06:21;23.80;52.70
51661;DHT22;37741;49.748;8.490;2023-06-10T08:08:46;23.80;52.70
51661;DHT22;37741;49.748;8.490;2023-06-10T08:11:12;23.80;52.80
51661;DHT22;37741;49.748;8.490;2023-06-10T08:13:38;23.80;52.80
51661;DHT22;37741;49.748;8.490;2023-06-10T08:16:04;23.80;52.70
51661;DHT22;37741;49.748;8.490;2023-06-10T08:18:29;23.80;52.70
51661;DHT22;37741;49.748;8.490;2023-06-10T08:20:55;23.80;52.70
51661;DHT22;37741;49.748;8.490;2023-06-10T08:23:21;23.80;52.80
51661;DHT22;37741;49.748;8.490;2023-06-10T08:25:46;23.80;52.70
51661;DHT22;37741;49.748;8.490;2023-06-10T08:28:12;23.80;52.60
51661;DHT22;37741;49.748;8.490;2023-06-10T08:30:38;23.80;52.60
51661;DHT22;37741;49.748;8.490;2023-06-10T08:33:03;23.80;52.60
51661;DHT22;37741;49.748;8.490;2023-06-10T08:35:29;23.80;52.70
51661;DHT22;37741;49.748;8.490;2023-06-10T08:37:55;23.80;52.70
51661;DHT22;37741;49.748;8.490;2023-06-10T08:40:20;23.80;52.70
51661;DHT22;37741;49.748;8.490;2023-06-10T08:42:52;23.80;52.70
51661;DHT22;37741;49.748;8.490;2023-06-10T08:45:19;23.80;52.70
51661;DHT22;37741;49.748;8.490;2023-06-10T08:47:50;23.80;52.70
51661;DHT22;37741;49.748;8.490;2023-06-10T08:50:19;23.80;52.70
51661;DHT22;37741;49.748;8.490;2023-06-10T08:52:48;23.90;52.70
51661;DHT22;37741;49.748;8.490;2023-06-10T08:55:18;23.80;52.80
51661;DHT22;37741;49.748;8.490;2023-06-10T08:57:45;23.80;52.70
51661;DHT22;37741;49.748;8.490;2023-06-10T09:00:13;23.80;53.60
51661;DHT22;37741;49.748;8.490;2023-06-10T09:02:40;23.90;53.90
51661;DHT22;37741;49.748;8.490;2023-06-10T09:05:07;23.90;53.50
51661;DHT22;37741;49.748;8.490;2023-06-10T09:07:33;23.90;53.00
51661;DHT22;37741;49.748;8.490;2023-06-10T09:10:03;23.90;52.70
51661;DHT22;37741;49.748;8.490;2023-06-10T09:12:30;23.80;52.50
51661;DHT22;37741;49.748;8.490;2023-06-10T09:14:56;23.90;52.60
51661;DHT22;37741;49.748;8.490;2023-06-10T09:17:22;23.80;52.50
51661;DHT22;37741;49.748;8.490;2023-06-10T09:19:47;23.80;52.80
51661;DHT22;37741;49.748;8.490;2023-06-10T09:22:14;23.80;52.70
51661;DHT22;37741;49.748;8.490;2023-06-10T09:24:40;23.80;52.60
51661;DHT22;37741;49.748;8.490;2023-06-10T09:27:08;23.80;52.50
51661;DHT22;37741;49.748;8.490;2023-06-10T09:32:12;23.80;52.50
51661;DHT22;37741;49.748;8.490;2023-06-10T09:34:39;23.90;52.50
51661;DHT22;37741;49.748;8.490;2023-06-10T09:37:05;23.90;52.50
51661;DHT22;37741;49.748;8.490;2023-06-10T09:39:31;23.90;52.40
51661;DHT22;37741;49.748;8.490;2023-06-10T09:41:56;23.90;52.60
51661;DHT22;37741;49.748;8.490;2023-06-10T09:44:22;23.90;52.50
51661;DHT22;37741;49.748;8.490;2023-06-10T09:46:50;24.00;52.70
51661;DHT22;37741;49.748;8.490;2023-06-10T09:49:17;24.00;52.70
51661;DHT22;37741;49.748;8.490;2023-06-10T09:51:50;24.00;53.10
51661;DHT22;37741;49.748;8.490;2023-06-10T09:54:16;24.00;53.80
51661;DHT22;37741;49.748;8.490;2023-06-10T09:56:42;24.00;53.60
51661;DHT22;37741;49.748;8.490;2023-06-10T09:59:08;24.00;53.20
51661;DHT22;37741;49.748;8.490;2023-06-10T10:01:34;24.10;53.30
51661;DHT22;37741;49.748;8.490;2023-06-10T10:04:00;24.10;53.60
51661;DHT22;37741;49.748;8.490;2023-06-10T10:06:27;24.20;54.00
51661;DHT22;37741;49.748;8.490;2023-06-10T10:08:53;24.20;53.70
51661;DHT22;37741;49.748;8.490;2023-06-10T10:11:20;24.30;54.00
51661;DHT22;37741;49.748;8.490;2023-06-10T10:13:50;24.40;54.10
51661;DHT22;37741;49.748;8.490;2023-06-10T10:16:21;24.40;53.70
51661;DHT22;37741;49.748;8.490;2023-06-10T10:18:55;24.50;53.40
51661;DHT22;37741;49.748;8.490;2023-06-10T10:21:26;24.60;53.10
51661;DHT22;37741;49.748;8.490;2023-06-10T10:24:16;24.60;53.30
51661;DHT22;37741;49.748;8.490;2023-06-10T10:26:41;24.80;52.50
51661;DHT22;37741;49.748;8.490;2023-06-10T10:29:24;24.80;52.00
51661;DHT22;37741;49.748;8.490;2023-06-10T10:31:51;24.80;51.90
51661;DHT22;37741;49.748;8.490;2023-06-10T10:34:30;24.80;51.60
51661;DHT22;37741;49.748;8.490;2023-06-10T10:37:00;24.80;51.60
51661;DHT22;37741;49.748;8.490;2023-06-10T10:39:26;24.80;51.40
51661;DHT22;37741;49.748;8.490;2023-06-10T10:41:54;24.90;51.80
51661;DHT22;37741;49.748;8.490;2023-06-10T10:44:21;24.90;51.30
51661;DHT22;37741;49.748;8.490;2023-06-10T10:46:50;24.90;51.10
51661;DHT22;37741;49.748;8.490;2023-06-10T10:49:17;25.00;51.10
51661;DHT22;37741;49.748;8.490;2023-06-10T10:52:00;25.00;51.00
51661;DHT22;37741;49.748;8.490;2023-06-10T10:54:34;25.00;50.90
51661;DHT22;37741;49.748;8.490;2023-06-10T10:59:54;25.00;50.70
51661;DHT22;37741;49.748;8.490;2023-06-10T11:02:39;25.10;50.60
51661;DHT22;37741;49.748;8.490;2023-06-10T11:05:06;25.10;50.50
51661;DHT22;37741;49.748;8.490;2023-06-10T11:07:33;25.10;50.40
51661;DHT22;37741;49.748;8.490;2023-06-10T11:10:06;25.20;50.40
51661;DHT22;37741;49.748;8.490;2023-06-10T11:15:09;25.30;50.30
51661;DHT22;37741;49.748;8.490;2023-06-10T11:17:35;25.30;50.20
51661;DHT22;37741;49.748;8.490;2023-06-10T11:20:01;25.30;50.10
51661;DHT22;37741;49.748;8.490;2023-06-10T11:22:26;25.30;50.30
51661;DHT22;37741;49.748;8.490;2023-06-10T11:24:52;25.40;50.00
51661;DHT22;37741;49.748;8.490;2023-06-10T11:27:19;25.40;49.90
51661;DHT22;37741;49.748;8.490;2023-06-10T11:30:17;25.40;49.90
51661;DHT22;37741;49.748;8.490;2023-06-10T11:32:45;25.40;50.10
51661;DHT22;37741;49.748;8.490;2023-06-10T11:35:17;25.40;49.80
51661;DHT22;37741;49.748;8.490;2023-06-10T11:37:43;25.40;49.80
51661;DHT22;37741;49.748;8.490;2023-06-10T11:40:10;25.40;49.70
51661;DHT22;37741;49.748;8.490;2023-06-10T11:42:41;25.50;49.70
51661;DHT22;37741;49.748;8.490;2023-06-10T11:45:07;25.50;49.70
51661;DHT22;37741;49.748;8.490;2023-06-10T11:47:34;25.50;49.60
51661;DHT22;37741;49.748;8.490;2023-06-10T11:49:59;25.50;49.50
51661;DHT22;37741;49.748;8.490;2023-06-10T11:52:31;25.50;49.40
51661;DHT22;37741;49.748;8.490;2023-06-10T11:55:05;25.60;49.10
51661;DHT22;37741;49.748;8.490;2023-06-10T11:57:34;25.60;49.30
51661;DHT22;37741;49.748;8.490;2023-06-10T12:00:07;25.60;49.10
51661;DHT22;37741;49.748;8.490;2023-06-10T12:02:33;25.60;49.00
51661;DHT22;37741;49.748;8.490;2023-06-10T12:05:12;25.60;48.80
51661;DHT22;37741;49.748;8.490;2023-06-10T12:07:38;25.70;48.70
51661;DHT22;37741;49.748;8.490;2023-06-10T12:10:04;25.70;48.60
51661;DHT22;37741;49.748;8.490;2023-06-10T12:12:30;25.80;48.70
51661;DHT22;37741;49.748;8.490;2023-06-10T12:14:57;25.80;48.50
51661;DHT22;37741;49.748;8.490;2023-06-10T12:20:24;26.00;48.40
51661;DHT22;37741;49.748;8.490;2023-06-10T12:22:48;26.00;48.00
51661;DHT22;37741;49.748;8.490;2023-06-10T12:25:13;26.00;48.00
51661;DHT22;37741;49.748;8.490;2023-06-10T12:27:50;26.10;47.90
51661;DHT22;37741;49.748;8.490;2023-06-10T12:30:19;26.10;47.70
51661;DHT22;37741;49.748;8.490;2023-06-10T12:32:46;26.20;47.70
51661;DHT22;37741;49.748;8.490;2023-06-10T12:35:20;26.30;47.30
51661;DHT22;37741;49.748;8.490;2023-06-10T12:37:59;26.30;47.20
51661;DHT22;37741;49.748;8.490;2023-06-10T12:40:36;26.40;47.30
51661;DHT22;37741;49.748;8.490;2023-06-10T12:43:04;26.50;47.20
51661;DHT22;37741;49.748;8.490;2023-06-10T12:45:34;26.50;47.10
51661;DHT22;37741;49.748;8.490;2023-06-10T12:50:54;26.70;46.50
51661;DHT22;37741;49.748;8.490;2023-06-10T12:53:21;26.90;46.50
51661;DHT22;37741;49.748;8.490;2023-06-10T12:55:49;27.00;46.00
51661;DHT22;37741;49.748;8.490;2023-06-10T12:58:15;27.10;45.90
51661;DHT22;37741;49.748;8.490;2023-06-10T13:00:42;27.20;45.90
51661;DHT22;37741;49.748;8.490;2023-06-10T13:03:09;27.30;45.90
51661;DHT22;37741;49.748;8.490;2023-06-10T13:05:38;27.40;45.60
51661;DHT22;37741;49.748;8.490;2023-06-10T13:08:07;27.60;45.50
51661;DHT22;37741;49.748;8.490;2023-06-10T13:10:36;27.60;45.20
51661;DHT22;37741;49.748;8.490;2023-06-10T13:13:02;27.70;44.80
51661;DHT22;37741;49.748;8.490;2023-06-10T13:15:31;27.80;44.60
51661;DHT22;37741;49.748;8.490;2023-06-10T13:17:56;27.80;44.30
51661;DHT22;37741;49.748;8.490;2023-06-10T13:20:22;27.90;44.20
51661;DHT22;37741;49.748;8.490;2023-06-10T13:22:48;27.90;44.00
51661;DHT22;37741;49.748;8.490;2023-06-10T13:25:16;28.00;44.10
51661;DHT22;37741;49.748;8.490;2023-06-10T13:27:41;28.10;44.00
51661;DHT22;37741;49.748;8.490;2023-06-10T13:30:09;28.10;44.10
51661;DHT22;37741;49.748;8.490;2023-06-10T13:32:35;28.20;43.80
51661;DHT22;37741;49.748;8.490;2023-06-10T13:35:01;28.30;43.70
51661;DHT22;37741;49.748;8.490;2023-06-10T13:37:27;28.30;43.80
51661;DHT22;37741;49.748;8.490;2023-06-10T13:39:53;28.50;43.70
51661;DHT22;37741;49.748;8.490;2023-06-10T13:42:19;28.50;43.40
51661;DHT22;37741;49.748;8.490;2023-06-10T13:44:46;28.60;43.20
51661;DHT22;37741;49.748;8.490;2023-06-10T13:47:13;28.70;43.30
51661;DHT22;37741;49.748;8.490;2023-06-10T13:49:39;28.80;43.50
51661;DHT22;37741;49.748;8.490;2023-06-10T13:52:05;28.90;42.80
51661;DHT22;37741;49.748;8.490;2023-06-10T13:54:32;29.00;42.70
51661;DHT22;37741;49.748;8.490;2023-06-10T13:56:57;29.10;42.40
51661;DHT22;37741;49.748;8.490;2023-06-10T13:59:23;29.20;42.40
51661;DHT22;37741;49.748;8.490;2023-06-10T14:01:49;29.30;42.30
51661;DHT22;37741;49.748;8.490;2023-06-10T14:04:20;29.40;42.10
51661;DHT22;37741;49.748;8.490;2023-06-10T14:06:46;29.40;41.70
51661;DHT22;37741;49.748;8.490;2023-06-10T14:09:18;29.60;41.50
51661;DHT22;37741;49.748;8.490;2023-06-10T14:11:44;29.60;41.10
51661;DHT22;37741;49.748;8.490;2023-06-10T14:14:10;29.70;41.00
51661;DHT22;37741;49.748;8.490;2023-06-10T14:16:36;29.80;41.20
51661;DHT22;37741;49.748;8.490;2023-06-10T14:19:01;29.90;41.20
51661;DHT22;37741;49.748;8.490;2023-06-10T14:21:27;30.00;41.60
51661;DHT22;37741;49.748;8.490;2023-06-10T14:23:53;30.00;41.20
51661;DHT22;37741;49.748;8.490;2023-06-10T14:26:22;30.00;41.10
51661;DHT22;37741;49.748;8.490;2023-06-10T14:28:48;30.10;42.60
51661;DHT22;37741;49.748;8.490;2023-06-10T14:31:21;30.10;41.90
51661;DHT22;37741;49.748;8.490;2023-06-10T14:33:47;30.10;41.20
51661;DHT22;37741;49.748;8.490;2023-06-10T14:36:12;30.20;41.30
51661;DHT22;37741;49.748;8.490;2023-06-10T14:38:38;30.30;40.90
51661;DHT22;37741;49.748;8.490;2023-06-10T14:41:04;30.30;40.90
51661;DHT22;37741;49.748;8.490;2023-06-10T14:43:29;30.30;40.90
51661;DHT22;37741;49.748;8.490;2023-06-10T14:45:55;30.40;40.90
51661;DHT22;37741;49.748;8.490;2023-06-10T14:48:21;30.40;40.70
51661;DHT22;37741;49.748;8.490;2023-06-10T14:50:47;30.50;40.50
51661;DHT22;37741;49.748;8.490;2023-06-10T14:53:17;30.50;40.50
51661;DHT22;37741;49.748;8.490;2023-06-10T14:55:42;30.60;40.60
51661;DHT22;37741;49.748;8.490;2023-06-10T14:58:08;30.60;40.00
51661;DHT22;37741;49.748;8.490;2023-06-10T15:00:34;30.70;40.10
51661;DHT22;37741;49.748;8.490;2023-06-10T15:02:59;30.80;40.10
51661;DHT22;37741;49.748;8.490;2023-06-10T15:05:25;30.90;40.80
51661;DHT22;37741;49.748;8.490;2023-06-10T15:07:50;30.90;39.80
51661;DHT22;37741;49.748;8.490;2023-06-10T15:10:16;31.00;40.70
51661;DHT22;37741;49.748;8.490;2023-06-10T15:12:42;31.10;40.20
51661;DHT22;37741;49.748;8.490;2023-06-10T15:15:08;31.20;39.70
51661;DHT22;37741;49.748;8.490;2023-06-10T15:17:33;31.30;39.50
51661;DHT22;37741;49.748;8.490;2023-06-10T15:19:59;31.40;39.30
51661;DHT22;37741;49.748;8.490;2023-06-10T15:22:25;31.50;39.90
51661;DHT22;37741;49.748;8.490;2023-06-10T15:24:50;31.50;39.80
51661;DHT22;37741;49.748;8.490;2023-06-10T15:27:16;31.60;39.50
51661;DHT22;37741;49.748;8.490;2023-06-10T15:29:42;31.70;39.60
51661;DHT22;37741;49.748;8.490;2023-06-10T15:32:08;31.80;39.20
51661;DHT22;37741;49.748;8.490;2023-06-10T15:34:33;31.90;39.20
51661;DHT22;37741;49.748;8.490;2023-06-10T15:36:59;32.10;39.00
51661;DHT22;37741;49.748;8.490;2023-06-10T15:39:24;32.10;39.50
51661;DHT22;37741;49.748;8.490;2023-06-10T15:41:52;32.30;38.80
51661;DHT22;37741;49.748;8.490;2023-06-10T15:44:18;32.40;38.70